Time;durP1;ratioP1;P1;durP2;ratioP2;P2;SDS_P1;SDS_P2;PMS_P1;PMS_P2;Temp;Humidity;BMP_temperature;BMP_pressure;BME280_temperature;BME280_humidity;BME280_pressure;Samples;Min_cycle;Max_cycle;Signal;HPM_P1;HPM_P2
2021/09/03 00:00:16;;;;;;;9.90;8.13;;;;;;;14.54;68.85;101922.38;690170;28;46348;-65
2021/09/03 00:00:37;;;;;;;10.75;8.10;;;;;;;14.54;68.62;101922.38;690198;28;67510;-66
2021/09/03 00:00:58;;;;;;;11.60;8.27;;;;;;;14.53;68.63;101920.66;692265;28;22163;-66
2021/09/03 00:01:21;;;;;;;9.23;8.15;;;;;;;14.52;68.56;101925.25;692490;28;21571;-66
2021/09/03 00:01:42;;;;;;;10.00;8.40;;;;;;;14.50;68.68;101921.88;690707;28;47424;-65
2021/09/03 00:02:03;;;;;;;10.38;8.52;;;;;;;14.51;68.70;101914.56;691809;28;22420;-66
2021/09/03 00:02:24;;;;;;;9.90;8.23;;;;;;;14.50;68.77;101921.00;691384;28;35995;-66
2021/09/03 00:02:47;;;;;;;9.82;8.13;;;;;;;14.48;68.69;101921.22;691852;28;22415;-64
2021/09/03 00:03:08;;;;;;;12.98;8.52;;;;;;;14.48;68.75;101921.22;690756;28;67233;-66
2021/09/03 00:03:30;;;;;;;11.23;8.25;;;;;;;14.48;69.02;101917.63;691993;28;22389;-66
2021/09/03 00:03:52;;;;;;;9.30;8.10;;;;;;;14.48;68.91;101921.22;691617;28;21524;-66
2021/09/03 00:04:13;;;;;;;10.52;8.38;;;;;;;14.47;69.03;101916.78;691463;28;46578;-65
2021/09/03 00:04:34;;;;;;;9.55;7.95;;;;;;;14.44;68.92;101921.72;692462;28;21716;-66
2021/09/03 00:04:55;;;;;;;9.63;8.27;;;;;;;14.47;69.20;101924.09;691454;28;46197;-65
2021/09/03 00:05:19;;;;;;;9.50;8.07;;;;;;;14.48;69.09;101923.06;691564;28;44135;-64
2021/09/03 00:05:40;;;;;;;9.95;8.38;;;;;;;14.48;69.29;101918.50;689980;28;69412;-66
2021/09/03 00:06:01;;;;;;;10.10;8.32;;;;;;;14.48;69.34;101912.19;692224;28;22479;-65
2021/09/03 00:06:24;;;;;;;10.63;8.20;;;;;;;14.48;69.38;101923.94;692376;28;22406;-65
2021/09/03 00:06:45;;;;;;;10.80;8.68;;;;;;;14.46;69.25;101916.97;689858;28;90099;-64
2021/09/03 00:07:06;;;;;;;9.45;8.43;;;;;;;14.48;69.39;101917.63;692142;28;21332;-65
2021/09/03 00:07:27;;;;;;;10.02;8.32;;;;;;;14.50;69.39;101926.44;690895;28;22362;-65
2021/09/03 00:07:50;;;;;;;9.70;8.18;;;;;;;14.50;69.21;101921.00;691573;28;23484;-64
2021/09/03 00:08:11;;;;;;;11.00;8.77;;;;;;;14.49;69.08;101913.88;691483;28;46518;-65
2021/09/03 00:08:32;;;;;;;11.18;8.88;;;;;;;14.46;69.33;101914.25;692376;28;23484;-66
2021/09/03 00:08:53;;;;;;;9.63;8.43;;;;;;;14.47;69.20;101915.94;692273;28;21413;-66
2021/09/03 00:09:15;;;;;;;9.43;8.43;;;;;;;14.46;69.39;101915.06;691748;28;23466;-66
2021/09/03 00:09:37;;;;;;;10.07;8.60;;;;;;;14.44;69.56;101919.84;691060;28;44378;-66
2021/09/03 00:09:58;;;;;;;9.82;8.30;;;;;;;14.41;69.63;101915.59;690005;28;44391;-65
2021/09/03 00:10:20;;;;;;;10.43;8.20;;;;;;;14.42;69.43;101914.59;692148;28;21533;-64
2021/09/03 00:10:42;;;;;;;11.48;8.35;;;;;;;14.40;69.65;101918.50;691257;28;45276;-65
2021/09/03 00:11:03;;;;;;;9.90;8.27;;;;;;;14.38;69.55;101920.53;690913;28;46318;-65
2021/09/03 00:11:24;;;;;;;11.13;8.50;;;;;;;14.35;69.85;101912.72;691682;28;23458;-66
2021/09/03 00:11:45;;;;;;;12.52;8.90;;;;;;;14.35;69.85;101910.84;691910;28;21540;-65
2021/09/03 00:12:08;;;;;;;9.52;8.50;;;;;;;14.36;69.77;101914.44;691456;28;21378;-65
2021/09/03 00:12:29;;;;;;;10.45;8.60;;;;;;;14.34;69.79;101921.91;690307;28;69805;-66
2021/09/03 00:12:50;;;;;;;10.15;8.38;;;;;;;14.30;69.95;101921.41;692189;28;22150;-66
2021/09/03 00:13:11;;;;;;;9.85;8.25;;;;;;;14.31;69.68;101925.81;692044;28;22234;-66
2021/09/03 00:13:33;;;;;;;9.60;7.97;;;;;;;14.29;69.96;101929.72;690716;28;44166;-65
2021/09/03 00:13:55;;;;;;;10.35;8.45;;;;;;;14.28;69.90;101928.88;690598;28;69449;-64
2021/09/03 00:14:16;;;;;;;10.25;8.55;;;;;;;14.27;70.23;101924.47;691824;28;21327;-65
2021/09/03 00:14:37;;;;;;;11.80;8.50;;;;;;;14.26;70.00;101924.63;692490;28;22399;-64
2021/09/03 00:14:59;;;;;;;9.48;8.45;;;;;;;14.22;70.16;101924.16;692286;28;23439;-65
2021/09/03 00:15:20;;;;;;;9.85;8.23;;;;;;;14.22;70.51;101918.72;690529;28;46326;-66
2021/09/03 00:15:41;;;;;;;10.10;8.07;;;;;;;14.22;70.33;101924.97;691847;28;22426;-65
2021/09/03 00:16:03;;;;;;;10.98;8.55;;;;;;;14.23;70.69;101925.81;692340;28;22393;-65
2021/09/03 00:16:25;;;;;;;12.00;8.57;;;;;;;14.22;70.43;101924.97;691066;28;46336;-66
2021/09/03 00:16:46;;;;;;;12.10;8.40;;;;;;;14.22;70.33;101927.69;691418;28;45277;-65
2021/09/03 00:17:07;;;;;;;10.85;8.27;;;;;;;14.21;70.51;101925.16;692339;28;21530;-65
2021/09/03 00:17:28;;;;;;;8.82;7.93;;;;;;;14.20;70.53;101927.03;691681;28;22383;-65
2021/09/03 00:17:50;;;;;;;10.30;8.15;;;;;;;14.20;70.43;101923.44;691742;28;21403;-66
2021/09/03 00:18:11;;;;;;;10.93;8.25;;;;;;;14.18;70.60;101920.91;691596;28;46231;-65
2021/09/03 00:18:33;;;;;;;10.43;8.20;;;;;;;14.17;70.31;101923.78;692510;28;21522;-66
2021/09/03 00:18:54;;;;;;;10.18;8.10;;;;;;;14.17;70.63;101921.06;692480;28;22364;-66
2021/09/03 00:19:16;;;;;;;9.40;8.00;;;;;;;14.16;70.38;101917.50;691932;28;22401;-64
2021/09/03 00:19:37;;;;;;;10.13;8.27;;;;;;;14.15;70.47;101909.53;691649;28;44371;-64
2021/09/03 00:19:58;;;;;;;9.48;8.07;;;;;;;14.16;70.74;101920.22;692468;28;21206;-66
2021/09/03 00:20:19;;;;;;;9.45;8.00;;;;;;;14.16;70.59;101922.94;691921;28;22428;-64
2021/09/03 00:20:41;;;;;;;9.73;8.25;;;;;;;14.14;70.84;101918.72;689910;28;46231;-66
2021/09/03 00:21:02;;;;;;;9.95;8.02;;;;;;;14.16;70.78;101913.97;691176;28;46214;-66
2021/09/03 00:21:24;;;;;;;9.90;8.35;;;;;;;14.13;70.68;101912.44;692299;28;21507;-65
2021/09/03 00:21:45;;;;;;;9.52;7.95;;;;;;;14.12;70.67;101921.63;690865;28;46430;-64
2021/09/03 00:22:07;;;;;;;9.85;8.13;;;;;;;14.12;70.78;101918.91;691370;28;23417;-66
2021/09/03 00:22:29;;;;;;;9.60;7.68;;;;;;;14.12;70.53;101921.63;690993;28;44423;-66
2021/09/03 00:22:50;;;;;;;8.82;7.93;;;;;;;14.11;70.79;101919.91;692433;28;22443;-66
2021/09/03 00:23:11;;;;;;;9.30;7.88;;;;;;;14.10;70.94;101915.47;691903;28;21553;-66
2021/09/03 00:23:33;;;;;;;9.88;7.68;;;;;;;14.10;70.84;101911.94;690894;28;22383;-64
2021/09/03 00:23:54;;;;;;;8.82;7.43;;;;;;;14.10;70.87;101920.91;691480;28;46341;-66
2021/09/03 00:24:15;;;;;;;9.25;7.80;;;;;;;14.06;70.93;101909.56;691600;28;23947;-65
2021/09/03 00:24:36;;;;;;;9.65;7.60;;;;;;;14.09;71.03;101904.78;691747;28;23426;-65
2021/09/03 00:24:58;;;;;;;9.70;7.75;;;;;;;14.09;70.74;101910.22;692391;28;22132;-64
2021/09/03 00:25:19;;;;;;;10.40;7.78;;;;;;;14.08;70.85;101911.25;690901;28;45410;-64
2021/09/03 00:25:40;;;;;;;10.15;8.40;;;;;;;14.10;71.02;101909.22;691925;28;21544;-66
2021/09/03 00:26:01;;;;;;;10.63;7.70;;;;;;;14.11;71.03;101908.19;691601;28;46323;-65
2021/09/03 00:26:23;;;;;;;8.45;7.55;;;;;;;14.09;70.94;101910.22;691853;28;22348;-66
2021/09/03 00:26:44;;;;;;;8.40;7.50;;;;;;;14.10;70.60;101912.75;690928;28;46278;-65
2021/09/03 00:27:05;;;;;;;10.02;7.53;;;;;;;14.06;70.87;101903.28;691072;28;24573;-65
2021/09/03 00:27:26;;;;;;;11.30;7.78;;;;;;;14.08;70.54;101908.53;692408;28;22358;-65
2021/09/03 00:27:48;;;;;;;9.98;7.93;;;;;;;14.09;70.84;101912.94;691760;28;23476;-65
2021/09/03 00:28:10;;;;;;;9.57;7.70;;;;;;;14.10;70.55;101909.22;691118;28;46328;-65
2021/09/03 00:28:31;;;;;;;9.50;7.63;;;;;;;14.09;70.87;101912.94;692687;28;3902;-65
2021/09/03 00:28:52;;;;;;;10.57;7.68;;;;;;;14.09;70.84;101918.38;691504;28;23411;-66
2021/09/03 00:29:13;;;;;;;9.32;7.47;;;;;;;14.09;70.65;101919.25;691281;28;19737;-66
2021/09/03 00:29:35;;;;;;;9.30;7.47;;;;;;;14.07;70.67;101904.97;692092;28;21547;-66
2021/09/03 00:29:56;;;;;;;8.77;7.30;;;;;;;14.08;70.54;101911.25;691586;28;46309;-66
2021/09/03 00:30:18;;;;;;;8.77;7.07;;;;;;;14.08;70.35;101917.53;692008;28;21503;-65
2021/09/03 00:30:39;;;;;;;9.57;7.47;;;;;;;14.04;70.44;101911.59;690719;28;44388;-66
2021/09/03 00:31:01;;;;;;;9.23;7.72;;;;;;;14.06;70.47;101906.00;692301;28;21537;-65
2021/09/03 00:31:22;;;;;;;9.90;7.53;;;;;;;14.06;70.55;101914.16;690976;28;45257;-66
2021/09/03 00:31:43;;;;;;;8.52;7.40;;;;;;;14.03;70.52;101912.63;691815;28;22414;-66
2021/09/03 00:32:05;;;;;;;8.38;7.30;;;;;;;14.05;70.50;101910.56;691542;28;22420;-66
2021/09/03 00:32:27;;;;;;;9.15;7.25;;;;;;;14.00;70.71;101909.41;691267;28;44382;-65
2021/09/03 00:32:48;;;;;;;8.98;7.30;;;;;;;14.05;70.58;101913.28;691651;28;43713;-66
2021/09/03 00:33:09;;;;;;;9.07;7.40;;;;;;;14.04;70.47;101908.03;691162;28;45253;-66
2021/09/03 00:33:31;;;;;;;9.88;7.32;;;;;;;14.05;70.53;101904.28;691692;28;22475;-66
2021/09/03 00:33:53;;;;;;;8.80;7.10;;;;;;;14.03;70.26;101915.34;692159;28;44413;-66
2021/09/03 00:34:14;;;;;;;7.82;7.03;;;;;;;14.00;70.37;101907.53;692085;28;23514;-66
2021/09/03 00:34:35;;;;;;;8.33;7.07;;;;;;;14.03;70.53;101907.19;692308;28;45238;-66
2021/09/03 00:34:56;;;;;;;9.10;7.37;;;;;;;14.04;70.45;101913.44;692334;28;47300;-66
2021/09/03 00:35:18;;;;;;;9.13;6.90;;;;;;;14.03;70.23;101903.63;692179;28;44439;-66
2021/09/03 00:35:39;;;;;;;8.65;7.20;;;;;;;14.02;70.18;101910.06;691791;28;46287;-65
2021/09/03 00:36:01;;;;;;;8.00;7.18;;;;;;;14.03;70.09;101907.19;692228;28;22411;-66
2021/09/03 00:36:22;;;;;;;7.82;7.03;;;;;;;14.00;70.19;101899.38;692210;28;23476;-66
2021/09/03 00:36:45;;;;;;;7.97;7.18;;;;;;;14.01;70.38;101908.34;692128;28;22424;-66
2021/09/03 00:37:06;;;;;;;8.68;7.28;;;;;;;14.01;70.39;101908.34;690110;28;89087;-66
2021/09/03 00:37:27;;;;;;;7.63;6.82;;;;;;;14.02;70.20;101910.06;692584;28;22413;-66
2021/09/03 00:37:48;;;;;;;7.88;7.05;;;;;;;14.02;70.38;101901.91;692028;28;22365;-66
2021/09/03 00:38:10;;;;;;;8.90;7.28;;;;;;;14.01;70.23;101913.78;692286;28;23345;-64
2021/09/03 00:38:31;;;;;;;9.68;6.90;;;;;;;14.00;70.24;101912.97;691449;28;45245;-65
2021/09/03 00:38:52;;;;;;;9.30;7.15;;;;;;;14.00;70.06;101917.56;692583;28;22453;-65
2021/09/03 00:39:14;;;;;;;8.32;7.20;;;;;;;14.00;70.16;101909.41;692603;28;22394;-65
2021/09/03 00:39:35;;;;;;;8.80;7.22;;;;;;;13.98;70.19;101908.69;692951;28;23264;-66
2021/09/03 00:39:57;;;;;;;9.18;7.32;;;;;;;13.99;70.34;101913.13;693075;28;23443;-65
2021/09/03 00:40:18;;;;;;;7.97;7.18;;;;;;;13.98;70.39;101908.69;691913;28;46267;-65
2021/09/03 00:40:39;;;;;;;8.45;6.97;;;;;;;13.96;70.14;101906.16;692273;28;21565;-66
2021/09/03 00:41:01;;;;;;;8.90;6.93;;;;;;;13.97;70.06;101909.75;692741;28;22439;-65
2021/09/03 00:41:22;;;;;;;8.63;6.75;;;;;;;13.97;70.13;101915.19;691945;28;44407;-66
2021/09/03 00:41:43;;;;;;;9.20;7.00;;;;;;;13.95;70.11;101907.19;691431;28;46211;-66
2021/09/03 00:42:08;;;;;;;9.30;6.78;;;;;;;13.94;70.04;101910.91;692316;28;23256;-66
2021/09/03 00:42:30;;;;;;;7.63;6.80;;;;;;;13.93;70.33;101917.34;689329;28;115413;-66
2021/09/03 00:42:51;;;;;;;7.53;6.78;;;;;;;13.93;70.45;101914.66;691932;28;46295;-66
2021/09/03 00:43:13;;;;;;;8.52;7.07;;;;;;;13.92;70.29;101909.38;692419;28;21544;-66
2021/09/03 00:43:34;;;;;;;7.40;6.55;;;;;;;13.92;70.18;101907.53;692753;28;23615;-65
2021/09/03 00:43:56;;;;;;;7.85;6.55;;;;;;;13.91;70.47;101905.00;692801;28;22394;-66
2021/09/03 00:44:17;;;;;;;8.88;6.68;;;;;;;13.91;70.29;101902.28;691686;28;46296;-65
2021/09/03 00:44:38;;;;;;;9.27;7.15;;;;;;;13.91;70.32;101910.44;692915;28;22258;-66
2021/09/03 00:45:00;;;;;;;8.23;6.85;;;;;;;13.90;70.62;101900.56;692198;28;45213;-66
2021/09/03 00:45:22;;;;;;;8.27;6.78;;;;;;;13.89;70.39;101902.44;692783;28;21543;-66
2021/09/03 00:45:43;;;;;;;9.23;7.10;;;;;;;13.87;70.60;101901.75;691345;28;46332;-66
2021/09/03 00:46:04;;;;;;;8.27;6.78;;;;;;;13.88;70.34;101909.72;691285;28;23461;-68
2021/09/03 00:46:26;;;;;;;8.60;6.65;;;;;;;13.88;70.33;101901.56;692786;28;21546;-66
2021/09/03 00:46:47;;;;;;;8.18;6.70;;;;;;;13.88;70.37;101907.00;690674;28;69446;-65
2021/09/03 00:47:08;;;;;;;7.32;6.63;;;;;;;13.87;70.38;101909.91;692035;28;21526;-66
2021/09/03 00:47:30;;;;;;;7.75;6.88;;;;;;;13.85;70.48;101901.91;692555;28;22337;-66
2021/09/03 00:47:51;;;;;;;8.35;6.93;;;;;;;13.87;70.39;101904.47;691382;28;44426;-66
2021/09/03 00:48:13;;;;;;;8.52;6.97;;;;;;;13.86;70.65;101910.94;692877;28;22211;-65
2021/09/03 00:48:34;;;;;;;10.80;7.10;;;;;;;13.82;70.61;101896.00;692859;28;23479;-66
2021/09/03 00:48:56;;;;;;;9.32;6.95;;;;;;;13.84;70.36;101908.38;693018;28;24311;-65
2021/09/03 00:49:17;;;;;;;8.07;6.78;;;;;;;13.85;70.23;101909.22;691845;28;46492;-66
2021/09/03 00:49:38;;;;;;;9.43;7.18;;;;;;;13.83;70.50;101912.09;693025;28;22403;-65
2021/09/03 00:49:59;;;;;;;8.03;6.80;;;;;;;13.82;70.50;101907.72;692213;28;45229;-65
2021/09/03 00:50:22;;;;;;;8.00;6.60;;;;;;;13.81;70.50;101905.16;692031;28;46188;-66
2021/09/03 00:50:44;;;;;;;9.63;6.80;;;;;;;13.80;70.46;101903.47;690235;28;69442;-66
2021/09/03 00:51:05;;;;;;;7.55;6.75;;;;;;;13.78;70.48;101906.34;691379;28;47939;-66
2021/09/03 00:51:26;;;;;;;7.97;6.85;;;;;;;13.78;70.41;101909.06;692911;28;23443;-65
2021/09/03 00:51:50;;;;;;;8.50;6.90;;;;;;;13.80;70.83;101911.59;692963;28;22400;-66
2021/09/03 00:52:11;;;;;;;7.53;6.38;;;;;;;13.77;70.57;101903.81;690294;28;91138;-65
2021/09/03 00:52:32;;;;;;;8.25;6.35;;;;;;;13.80;70.55;101903.47;692749;28;22374;-66
2021/09/03 00:52:54;;;;;;;8.07;6.43;;;;;;;13.78;70.71;101911.78;692829;28;23358;-66
2021/09/03 00:53:15;;;;;;;7.43;6.72;;;;;;;13.80;70.64;101912.44;692831;28;21370;-66
2021/09/03 00:53:37;;;;;;;6.90;6.22;;;;;;;13.76;70.74;101902.09;692273;28;46396;-66
2021/09/03 00:53:58;;;;;;;8.40;6.55;;;;;;;13.78;70.91;101900.09;691897;28;44525;-65
2021/09/03 00:54:19;;;;;;;7.38;6.40;;;;;;;13.77;70.79;101904.63;691676;28;22295;-66
2021/09/03 00:54:41;;;;;;;6.90;6.20;;;;;;;13.78;70.87;101906.34;692732;28;21665;-65
2021/09/03 00:55:03;;;;;;;7.80;7.00;;;;;;;13.76;70.79;101904.81;691111;28;46342;-64
2021/09/03 00:55:24;;;;;;;8.00;6.70;;;;;;;13.77;70.67;101906.53;691917;28;46344;-65
2021/09/03 00:55:46;;;;;;;8.00;6.40;;;;;;;13.78;70.88;101905.50;692684;28;22481;-64
2021/09/03 00:56:07;;;;;;;8.82;6.72;;;;;;;13.77;70.94;101906.53;691674;28;46278;-66
2021/09/03 00:56:28;;;;;;;7.65;6.40;;;;;;;13.78;70.74;101908.22;692662;28;22182;-65
2021/09/03 00:56:49;;;;;;;8.65;6.45;;;;;;;13.78;70.90;101900.91;692721;28;21499;-66
2021/09/03 00:57:11;;;;;;;8.13;6.43;;;;;;;13.79;70.97;101905.34;692448;28;21528;-66
2021/09/03 00:57:33;;;;;;;7.47;6.55;;;;;;;13.81;71.00;101899.75;692080;28;21537;-66
2021/09/03 00:57:54;;;;;;;7.03;6.30;;;;;;;13.79;71.00;101897.19;690855;28;44404;-66
2021/09/03 00:58:15;;;;;;;7.90;6.53;;;;;;;13.80;70.94;101901.59;692140;28;22429;-65
2021/09/03 00:58:37;;;;;;;8.48;6.60;;;;;;;13.80;70.91;101906.19;692991;28;22319;-66
2021/09/03 00:58:58;;;;;;;7.60;6.60;;;;;;;13.80;70.86;101903.47;690977;28;69376;-65
2021/09/03 00:59:20;;;;;;;7.28;6.53;;;;;;;13.81;70.70;101899.75;691586;28;22420;-66
2021/09/03 00:59:41;;;;;;;6.68;6.00;;;;;;;13.76;70.67;101894.81;692707;28;22422;-66
2021/09/03 01:00:04;;;;;;;8.10;6.22;;;;;;;13.79;70.74;101899.03;692761;28;23430;-65
2021/09/03 01:00:25;;;;;;;7.30;6.45;;;;;;;13.79;70.79;101899.91;689974;28;69177;-66
2021/09/03 01:00:46;;;;;;;6.75;6.13;;;;;;;13.80;70.63;101900.75;692562;28;21582;-66
2021/09/03 01:01:07;;;;;;;7.60;6.60;;;;;;;13.79;70.66;101905.34;691256;28;45251;-66
2021/09/03 01:01:29;;;;;;;10.57;6.80;;;;;;;13.79;70.58;101897.19;692710;28;21536;-65
2021/09/03 01:01:51;;;;;;;8.02;6.65;;;;;;;13.80;70.53;101904.31;691992;28;44383;-65
2021/09/03 01:02:12;;;;;;;7.68;6.47;;;;;;;13.80;70.70;101903.47;692924;28;22303;-66
2021/09/03 01:02:33;;;;;;;7.47;6.57;;;;;;;13.78;70.79;101894.66;692253;28;22402;-66
2021/09/03 01:02:55;;;;;;;7.15;6.32;;;;;;;13.79;70.55;101901.75;693001;28;21555;-66
2021/09/03 01:03:16;;;;;;;7.00;6.30;;;;;;;13.76;70.66;101892.09;691372;28;44603;-66
2021/09/03 01:03:37;;;;;;;6.78;6.10;;;;;;;13.78;70.69;101908.22;692228;28;22526;-66
2021/09/03 01:03:58;;;;;;;7.00;6.40;;;;;;;13.77;70.52;101909.22;692199;28;21421;-66
2021/09/03 01:04:20;;;;;;;6.75;6.15;;;;;;;13.76;70.49;101902.97;691707;28;22417;-65
2021/09/03 01:04:41;;;;;;;8.15;6.60;;;;;;;13.75;70.60;101895.00;690397;28;69251;-66
2021/09/03 01:05:03;;;;;;;9.45;6.53;;;;;;;13.75;70.69;101900.41;692800;28;22523;-65
2021/09/03 01:05:24;;;;;;;8.10;6.60;;;;;;;13.73;70.74;101897.88;692775;28;22398;-66
2021/09/03 01:05:47;;;;;;;6.78;6.10;;;;;;;13.72;70.65;101895.31;691705;28;46327;-64
2021/09/03 01:06:08;;;;;;;6.88;6.07;;;;;;;13.70;70.97;101899.03;691290;28;45253;-66
2021/09/03 01:06:29;;;;;;;6.85;6.20;;;;;;;13.69;70.62;101894.63;692783;28;21317;-66
2021/09/03 01:06:53;;;;;;;6.85;6.15;;;;;;;13.68;70.61;101900.22;692168;28;43976;-65
2021/09/03 01:07:14;;;;;;;6.75;6.05;;;;;;;13.63;70.80;101894.47;691305;28;67517;-66
2021/09/03 01:07:35;;;;;;;7.68;6.30;;;;;;;13.65;70.51;101903.28;692003;28;21001;-65
2021/09/03 01:07:56;;;;;;;10.25;6.60;;;;;;;13.61;70.67;101886.50;692434;28;22395;-66
2021/09/03 01:08:18;;;;;;;7.15;6.30;;;;;;;13.62;71.00;101892.75;691757;28;46289;-66
2021/09/03 01:08:40;;;;;;;7.43;6.40;;;;;;;13.60;70.66;101892.09;691723;28;44183;-66
2021/09/03 01:09:01;;;;;;;7.82;6.32;;;;;;;13.59;70.79;101890.38;691885;28;23453;-65
2021/09/03 01:09:22;;;;;;;8.93;6.28;;;;;;;13.59;70.93;101890.38;691970;28;23444;-66
2021/09/03 01:09:44;;;;;;;8.90;6.53;;;;;;;13.58;70.88;101892.25;692179;28;23494;-66
2021/09/03 01:10:06;;;;;;;7.53;6.18;;;;;;;13.58;70.95;101886.81;691936;28;44228;-64
2021/09/03 01:10:28;;;;;;;6.82;6.13;;;;;;;13.59;71.19;101890.38;690876;28;69333;-66
2021/09/03 01:10:49;;;;;;;6.45;5.85;;;;;;;13.58;70.90;101889.53;692919;28;23561;-64
2021/09/03 01:11:12;;;;;;;6.82;6.07;;;;;;;13.58;70.95;101889.53;691341;28;23470;-66
2021/09/03 01:11:33;;;;;;;6.82;6.15;;;;;;;13.59;71.37;101895.81;691221;28;67378;-66
2021/09/03 01:11:54;;;;;;;6.93;6.03;;;;;;;13.61;71.11;101888.38;693136;28;23412;-65
2021/09/03 01:12:17;;;;;;;7.70;6.15;;;;;;;13.59;71.17;101891.25;692003;28;23490;-65
2021/09/03 01:12:39;;;;;;;7.10;6.25;;;;;;;13.62;71.04;101890.03;690965;28;69762;-66
2021/09/03 01:13:00;;;;;;;7.10;6.03;;;;;;;13.60;71.05;101886.66;692217;28;44379;-65
2021/09/03 01:13:22;;;;;;;6.65;5.90;;;;;;;13.61;71.01;101888.38;692792;28;22478;-65
2021/09/03 01:13:43;;;;;;;7.07;6.38;;;;;;;13.62;71.13;101892.75;692084;28;45159;-64
2021/09/03 01:14:04;;;;;;;8.23;6.53;;;;;;;13.60;70.92;101887.50;692937;28;23442;-65
2021/09/03 01:14:26;;;;;;;8.63;6.53;;;;;;;13.61;71.00;101886.50;691957;28;23448;-65
2021/09/03 01:14:47;;;;;;;7.60;6.05;;;;;;;13.62;71.15;101896.34;691845;28;46215;-65
2021/09/03 01:15:09;;;;;;;6.40;5.80;;;;;;;13.61;71.05;101883.78;692692;28;21406;-65
2021/09/03 01:15:30;;;;;;;6.65;5.93;;;;;;;13.58;71.03;101889.53;691920;28;46348;-65
2021/09/03 01:15:52;;;;;;;6.32;5.72;;;;;;;13.60;71.02;101887.50;691947;28;21233;-65
2021/09/03 01:16:13;;;;;;;7.05;6.15;;;;;;;13.59;71.03;101883.09;691722;28;46300;-65
2021/09/03 01:16:34;;;;;;;8.07;5.95;;;;;;;13.60;70.75;101887.50;692574;28;23485;-65
2021/09/03 01:16:55;;;;;;;7.30;6.30;;;;;;;13.61;71.16;101891.91;692560;28;23434;-65
2021/09/03 01:17:18;;;;;;;6.97;6.10;;;;;;;13.60;71.14;101887.50;692458;28;22405;-65
2021/09/03 01:17:40;;;;;;;7.20;6.50;;;;;;;13.60;71.18;101890.22;690314;28;67491;-65
2021/09/03 01:18:01;;;;;;;7.25;6.55;;;;;;;13.61;71.01;101891.91;691965;28;46435;-65
2021/09/03 01:18:22;;;;;;;6.82;6.13;;;;;;;13.62;71.37;101892.75;693348;28;909;-65
2021/09/03 01:18:44;;;;;;;6.70;5.97;;;;;;;13.63;71.09;101889.88;692543;28;23415;-65
2021/09/03 01:19:06;;;;;;;7.05;6.35;;;;;;;13.61;71.09;101888.38;691974;28;44166;-64
2021/09/03 01:19:27;;;;;;;7.13;6.13;;;;;;;13.62;71.19;101888.19;691707;28;46335;-65
2021/09/03 01:19:50;;;;;;;7.68;6.43;;;;;;;13.63;71.23;101891.75;692611;28;22378;-65
2021/09/03 01:20:12;;;;;;;7.90;6.32;;;;;;;13.60;71.14;101883.94;691849;28;44395;-65
2021/09/03 01:20:34;;;;;;;6.80;6.10;;;;;;;13.63;71.21;101892.59;691129;28;45236;-65
2021/09/03 01:20:55;;;;;;;8.23;6.55;;;;;;;13.62;71.02;101890.91;691502;28;47521;-66
2021/09/03 01:21:17;;;;;;;8.18;6.78;;;;;;;13.60;70.90;101895.63;692224;28;21527;-65
2021/09/03 01:21:38;;;;;;;7.82;6.30;;;;;;;13.59;70.99;101887.66;691623;28;46132;-65
2021/09/03 01:22:01;;;;;;;6.82;6.13;;;;;;;13.58;71.16;101884.13;692255;28;23444;-65
2021/09/03 01:22:26;;;;;;;6.88;6.25;;;;;;;13.56;71.19;101883.44;690319;28;92586;-66
2021/09/03 01:22:58;;;;;;;6.55;5.78;;;;;;;13.55;70.97;101883.59;688698;28;59264;-66
2021/09/03 01:23:19;;;;;;;6.40;5.80;;;;;;;13.54;71.08;101882.75;685705;28;137534;-66
2021/09/03 01:23:41;;;;;;;8.80;6.20;;;;;;;13.53;71.38;101889.22;690001;28;22362;-66
2021/09/03 01:24:02;;;;;;;9.13;6.55;;;;;;;13.49;71.12;101886.00;689172;28;44216;-65
2021/09/03 01:24:23;;;;;;;6.55;5.95;;;;;;;13.50;71.33;101893.09;688635;28;46582;-64
2021/09/03 01:24:44;;;;;;;6.80;6.15;;;;;;;13.50;71.17;101884.13;690245;28;23483;-65
2021/09/03 01:25:08;;;;;;;7.43;6.25;;;;;;;13.48;71.47;101883.44;691726;28;22366;-65
2021/09/03 01:25:29;;;;;;;7.43;6.57;;;;;;;13.47;71.46;101876.31;691837;28;92274;-64
2021/09/03 01:25:50;;;;;;;6.85;6.15;;;;;;;13.43;71.28;101878.53;693107;28;21527;-65
2021/09/03 01:26:12;;;;;;;7.18;6.47;;;;;;;13.45;71.37;101878.34;690984;28;22947;-65
2021/09/03 01:26:34;;;;;;;7.38;6.57;;;;;;;13.45;71.68;101890.03;690818;28;44188;-65
2021/09/03 01:26:55;;;;;;;7.20;6.50;;;;;;;13.46;71.36;101880.03;693046;28;23457;-65
2021/09/03 01:27:16;;;;;;;6.72;6.03;;;;;;;13.46;71.72;101877.31;693121;28;13688;-65
2021/09/03 01:27:40;;;;;;;8.57;6.00;;;;;;;13.46;71.63;101880.91;691350;28;46153;-65
2021/09/03 01:28:03;;;;;;;8.68;6.25;;;;;;;13.46;71.40;101891.75;690999;28;68983;-65
2021/09/03 01:28:24;;;;;;;7.53;6.38;;;;;;;13.47;71.67;101876.31;690818;28;67520;-65
2021/09/03 01:28:45;;;;;;;7.63;6.35;;;;;;;13.45;71.59;101872.94;692883;28;22400;-66
2021/09/03 01:29:07;;;;;;;7.35;6.47;;;;;;;13.46;71.66;101883.63;692129;28;44344;-65
2021/09/03 01:29:29;;;;;;;8.20;6.57;;;;;;;13.45;71.50;101879.19;690121;28;46048;-65
2021/09/03 01:29:50;;;;;;;7.93;6.30;;;;;;;13.45;71.49;101879.19;689524;28;20647;-65
2021/09/03 01:30:13;;;;;;;7.97;6.30;;;;;;;13.41;71.37;101872.38;689722;28;23513;-65
2021/09/03 01:30:35;;;;;;;7.88;6.35;;;;;;;13.44;71.54;101879.34;688193;28;67456;-66
2021/09/03 01:30:56;;;;;;;7.18;6.20;;;;;;;13.42;71.43;101874.09;688945;28;46137;-65
2021/09/03 01:31:17;;;;;;;8.30;6.28;;;;;;;13.41;71.44;101871.56;690287;28;23479;-65
2021/09/03 01:31:39;;;;;;;6.60;5.90;;;;;;;13.39;71.19;101874.44;691722;28;45227;-65
2021/09/03 01:32:00;;;;;;;6.90;6.25;;;;;;;13.39;71.18;101879.03;692774;28;22379;-65
2021/09/03 01:32:22;;;;;;;6.70;6.05;;;;;;;13.36;71.22;101866.63;692166;28;23507;-65
2021/09/03 01:32:43;;;;;;;7.22;6.15;;;;;;;13.38;71.56;101871.88;691855;28;44399;-66
2021/09/03 01:33:05;;;;;;;7.03;6.32;;;;;;;13.39;71.30;101871.72;691691;28;43759;-65
2021/09/03 01:33:26;;;;;;;8.02;6.15;;;;;;;13.37;71.44;101867.47;692228;28;22405;-64
2021/09/03 01:33:49;;;;;;;8.25;6.25;;;;;;;13.37;71.31;101867.47;692162;28;21515;-65
2021/09/03 01:34:11;;;;;;;6.75;6.05;;;;;;;13.37;71.70;101876.47;690760;28;69450;-65
2021/09/03 01:34:32;;;;;;;7.32;6.28;;;;;;;13.33;71.42;101867.81;690668;28;46391;-65
2021/09/03 01:34:53;;;;;;;7.30;6.55;;;;;;;13.35;71.72;101862.19;692537;28;22422;-65
2021/09/03 01:35:15;;;;;;;7.00;6.30;;;;;;;13.36;71.42;101863.91;692483;28;23385;-65
2021/09/03 01:35:36;;;;;;;9.20;6.28;;;;;;;13.36;71.41;101865.78;691484;28;46380;-65
2021/09/03 01:35:57;;;;;;;8.27;6.13;;;;;;;13.33;71.43;101870.50;692399;28;21439;-65
2021/09/03 01:36:18;;;;;;;6.82;6.05;;;;;;;13.36;71.70;101866.63;692831;28;22427;-65
2021/09/03 01:36:40;;;;;;;6.78;5.97;;;;;;;13.36;71.55;101863.91;692850;28;23501;-66
2021/09/03 01:37:03;;;;;;;8.48;6.57;;;;;;;13.38;71.75;101869.16;691990;28;46344;-65
2021/09/03 01:37:24;;;;;;;7.10;6.40;;;;;;;13.36;71.49;101863.06;690874;28;68467;-65
2021/09/03 01:37:45;;;;;;;7.25;6.50;;;;;;;13.36;71.49;101860.38;691925;28;23462;-66
2021/09/03 01:38:08;;;;;;;7.20;6.28;;;;;;;13.36;71.41;101860.38;692751;28;23358;-65
2021/09/03 01:38:29;;;;;;;10.27;6.93;;;;;;;13.35;71.57;101864.91;691248;28;67523;-65
2021/09/03 01:38:50;;;;;;;7.63;6.55;;;;;;;13.36;71.49;101863.06;693664;28;985;-64
2021/09/03 01:39:11;;;;;;;6.85;6.15;;;;;;;13.34;71.67;101864.06;691981;28;21518;-65
2021/09/03 01:39:32;;;;;;;7.35;6.35;;;;;;;13.37;71.56;101864.75;692598;28;22567;-66
2021/09/03 01:39:54;;;;;;;10.07;6.07;;;;;;;13.37;71.51;101868.34;692664;28;22218;-66
2021/09/03 01:40:15;;;;;;;8.07;6.53;;;;;;;13.37;71.89;101862.03;691115;28;45015;-65
2021/09/03 01:40:37;;;;;;;7.10;6.40;;;;;;;13.37;71.61;101865.63;692835;28;22417;-65
2021/09/03 01:40:58;;;;;;;8.13;6.40;;;;;;;13.37;71.86;101859.31;692587;28;23415;-65
2021/09/03 01:41:20;;;;;;;7.07;6.30;;;;;;;13.39;71.71;101862.75;692783;28;21560;-65